createdAt,value
2017-11-26T00:00:06.874Z,5.78
2017-11-26T00:02:32.880Z,6.37
2017-11-26T00:04:58.863Z,6.10
2017-11-26T00:07:24.892Z,5.80
2017-11-26T00:09:50.899Z,6.10
2017-11-26T00:12:16.925Z,6.18
2017-11-26T00:14:42.870Z,5.90
2017-11-26T00:17:08.966Z,5.90
2017-11-26T00:19:35.699Z,6.10
2017-11-26T00:22:02.450Z,6.93
2017-11-26T00:24:28.707Z,6.15
2017-11-26T00:26:54.713Z,6.65
2017-11-26T00:29:20.740Z,7.20
2017-11-26T00:31:46.750Z,7.55
2017-11-26T00:34:12.779Z,7.50
2017-11-26T00:36:38.936Z,6.90
2017-11-26T00:39:04.947Z,6.90
2017-11-26T00:41:30.949Z,6.65
2017-11-26T00:43:56.963Z,6.90
2017-11-26T00:46:22.945Z,6.72
2017-11-26T00:48:48.968Z,6.47
2017-11-26T00:51:14.963Z,6.25
2017-11-26T00:53:48.327Z,7.28
2017-11-26T00:56:14.320Z,6.60
2017-11-26T00:58:41.046Z,6.50
2017-11-26T01:01:07.824Z,6.60
2017-11-26T01:03:34.095Z,7.10
2017-11-26T01:06:00.067Z,7.87
2017-11-26T01:08:26.089Z,7.37
2017-11-26T01:10:52.836Z,7.20
2017-11-26T01:13:18.864Z,7.20
2017-11-26T01:15:44.999Z,7.75
2017-11-26T01:18:10.994Z,8.07
2017-11-26T01:20:37.742Z,7.30
2017-11-26T01:23:04.569Z,7.40
2017-11-26T01:25:31.315Z,9.30
2017-11-26T01:27:58.024Z,9.80
2017-11-26T01:32:56.851Z,8.38
2017-11-26T01:35:23.864Z,8.43
2017-11-26T01:37:49.863Z,8.82
2017-11-26T01:40:15.997Z,8.50
2017-11-26T01:42:42.072Z,8.50
2017-11-26T01:45:08.071Z,8.43
2017-11-26T01:47:34.081Z,8.82
2017-11-26T01:50:00.146Z,9.18
2017-11-26T01:52:26.907Z,9.35
2017-11-26T01:54:52.927Z,10.10
2017-11-26T01:57:18.995Z,8.93
2017-11-26T01:59:44.988Z,10.40
2017-11-26T02:02:11.019Z,10.00
2017-11-26T02:04:37.894Z,9.80
2017-11-26T02:07:03.854Z,11.00
2017-11-26T02:09:29.873Z,10.85
2017-11-26T02:11:55.870Z,10.50
2017-11-26T02:14:21.866Z,10.40
2017-11-26T02:16:47.940Z,11.23
2017-11-26T02:19:13.944Z,10.75
2017-11-26T02:21:40.654Z,11.60
2017-11-26T02:24:06.647Z,10.82
2017-11-26T02:26:32.646Z,10.75
2017-11-26T02:28:58.643Z,10.95
2017-11-26T02:31:37.986Z,10.93
2017-11-26T02:34:16.373Z,9.83
2017-11-26T02:36:42.576Z,9.93
2017-11-26T02:39:08.572Z,11.80
2017-11-26T02:41:34.626Z,10.32
2017-11-26T02:44:00.648Z,10.75
2017-11-26T02:46:26.640Z,11.63
2017-11-26T02:48:52.632Z,10.75
2017-11-26T02:51:19.393Z,10.98
2017-11-26T02:53:45.372Z,12.30
2017-11-26T02:56:11.359Z,10.30
2017-11-26T02:58:37.633Z,11.10
2017-11-26T03:01:04.366Z,11.50
2017-11-26T03:03:30.362Z,11.00
2017-11-26T03:05:56.493Z,11.30
2017-11-26T03:08:22.517Z,11.70
2017-11-26T03:10:48.470Z,11.20
2017-11-26T03:13:15.326Z,11.53
2017-11-26T03:15:41.322Z,11.55
2017-11-26T03:18:08.056Z,11.68
2017-11-26T03:20:34.294Z,11.57
2017-11-26T03:23:00.405Z,11.50
2017-11-26T03:25:26.396Z,12.27
2017-11-26T03:27:52.664Z,11.95
2017-11-26T03:30:18.668Z,11.35
2017-11-26T03:32:44.699Z,12.60
2017-11-26T03:35:11.052Z,11.90
2017-11-26T03:37:37.802Z,11.50
2017-11-26T03:40:03.808Z,11.90
2017-11-26T03:42:30.577Z,11.68
2017-11-26T03:44:56.582Z,11.98
2017-11-26T03:47:23.331Z,10.68
2017-11-26T03:49:49.332Z,11.70
2017-11-26T03:52:16.054Z,10.77
2017-11-26T03:54:42.059Z,11.30
2017-11-26T03:57:08.062Z,11.98
2017-11-26T03:59:34.068Z,11.65
2017-11-26T04:02:00.087Z,11.10
2017-11-26T04:04:26.082Z,10.38
2017-11-26T04:06:52.818Z,11.25
2017-11-26T04:09:19.886Z,11.30
2017-11-26T04:11:45.882Z,11.60
2017-11-26T04:14:12.645Z,12.13
2017-11-26T04:16:38.652Z,11.07
2017-11-26T04:19:04.726Z,11.65
2017-11-26T04:21:30.765Z,11.68
2017-11-26T04:23:56.784Z,12.10
2017-11-26T04:26:22.797Z,11.37
2017-11-26T04:28:48.796Z,11.98
2017-11-26T04:31:15.103Z,12.45
2017-11-26T04:33:41.811Z,12.40
2017-11-26T04:36:07.850Z,11.90
2017-11-26T04:38:34.600Z,11.50
2017-11-26T04:41:01.383Z,12.52
2017-11-26T04:43:27.366Z,11.80
2017-11-26T04:45:54.128Z,11.93
2017-11-26T04:48:20.118Z,12.37
2017-11-26T04:50:46.904Z,11.55
2017-11-26T04:53:12.927Z,10.90
2017-11-26T04:55:38.910Z,11.48
2017-11-26T04:58:05.652Z,11.95
2017-11-26T05:00:32.529Z,11.50
2017-11-26T05:02:58.527Z,11.23
2017-11-26T05:05:24.494Z,11.93
2017-11-26T05:07:50.564Z,11.65
2017-11-26T05:10:16.585Z,12.30
2017-11-26T05:12:43.316Z,11.73
2017-11-26T05:15:10.101Z,12.20
2017-11-26T05:17:36.853Z,11.40
2017-11-26T05:20:02.850Z,12.30
2017-11-26T05:22:28.867Z,12.07
2017-11-26T05:24:54.859Z,10.75
2017-11-26T05:27:21.611Z,10.63
2017-11-26T05:29:48.353Z,9.80
2017-11-26T05:32:15.084Z,10.97
2017-11-26T05:34:41.852Z,9.60
2017-11-26T05:37:09.077Z,10.40
2017-11-26T05:39:35.827Z,10.70
2017-11-26T05:42:01.815Z,10.33
2017-11-26T05:44:27.838Z,11.07
2017-11-26T05:46:53.857Z,10.70
2017-11-26T05:49:19.854Z,11.45
2017-11-26T05:51:46.839Z,11.48
2017-11-26T05:54:13.601Z,12.50
2017-11-26T05:56:39.603Z,11.90
2017-11-26T05:59:06.380Z,11.10
2017-11-26T06:01:32.394Z,11.00
2017-11-26T06:03:58.407Z,12.27
2017-11-26T06:06:24.419Z,12.80
2017-11-26T06:08:51.186Z,11.75
2017-11-26T06:11:17.180Z,12.87
2017-11-26T06:13:43.946Z,11.90
2017-11-26T06:16:09.926Z,11.37
2017-11-26T06:18:35.922Z,11.85
2017-11-26T06:21:02.031Z,11.32
2017-11-26T06:23:28.029Z,11.40
2017-11-26T06:25:54.050Z,12.00
2017-11-26T06:28:20.351Z,11.65
2017-11-26T06:30:47.091Z,12.23
2017-11-26T06:33:13.882Z,12.35
2017-11-26T06:35:40.223Z,11.50
2017-11-26T06:38:06.232Z,11.90
2017-11-26T06:40:32.260Z,11.68
2017-11-26T06:42:58.329Z,10.80
2017-11-26T06:45:25.098Z,11.30
2017-11-26T06:47:51.796Z,11.00
2017-11-26T06:50:18.650Z,11.90
2017-11-26T06:52:45.397Z,11.35
2017-11-26T06:55:12.142Z,11.95
2017-11-26T06:57:38.897Z,12.40
2017-11-26T07:00:04.901Z,13.25
2017-11-26T07:02:31.935Z,12.50
2017-11-26T07:04:58.692Z,14.98
2017-11-26T07:07:25.499Z,14.00
2017-11-26T07:09:52.104Z,13.77
2017-11-26T07:12:18.090Z,13.45
2017-11-26T07:14:44.980Z,14.75
2017-11-26T07:17:11.021Z,14.50
2017-11-26T07:19:36.994Z,15.10
2017-11-26T07:22:03.034Z,15.35
2017-11-26T07:24:29.082Z,16.00
2017-11-26T07:26:55.123Z,15.20
2017-11-26T07:29:21.120Z,16.20
2017-11-26T07:31:47.187Z,16.67
2017-11-26T07:34:13.953Z,16.15
2017-11-26T07:36:39.940Z,17.40
2017-11-26T07:39:06.690Z,17.75
2017-11-26T07:41:33.454Z,18.47
2017-11-26T07:43:59.436Z,19.75
2017-11-26T07:46:26.180Z,18.63
2017-11-26T07:48:52.921Z,17.60
2017-11-26T07:51:19.660Z,19.70
2017-11-26T07:53:46.604Z,18.67
2017-11-26T07:56:13.383Z,19.90
2017-11-26T07:58:39.390Z,19.60
2017-11-26T08:01:05.375Z,19.35
2017-11-26T08:03:31.350Z,19.27
2017-11-26T08:05:57.379Z,20.93
2017-11-26T08:08:23.392Z,20.27
2017-11-26T08:10:49.374Z,20.10
2017-11-26T08:13:16.141Z,19.77
2017-11-26T08:15:42.134Z,19.90
2017-11-26T08:18:08.880Z,20.53
2017-11-26T08:20:35.618Z,20.60
2017-11-26T08:23:02.375Z,19.55
2017-11-26T08:25:28.358Z,20.77
2017-11-26T08:27:54.331Z,20.83
2017-11-26T08:30:20.339Z,20.12
2017-11-26T08:32:46.351Z,19.77
2017-11-26T08:35:13.100Z,20.45
2017-11-26T08:37:39.131Z,19.80
2017-11-26T08:40:05.150Z,19.73
2017-11-26T08:42:31.151Z,19.67
2017-11-26T08:44:57.916Z,19.70
2017-11-26T08:47:24.040Z,18.75
2017-11-26T08:49:50.035Z,19.25
2017-11-26T08:52:16.830Z,20.58
2017-11-26T08:54:42.860Z,17.70
2017-11-26T08:57:08.870Z,19.25
2017-11-26T08:59:34.860Z,19.02
2017-11-26T09:02:00.897Z,17.42
2017-11-26T09:04:26.886Z,18.80
2017-11-26T09:06:57.547Z,16.87
2017-11-26T09:09:23.559Z,17.90
2017-11-26T09:11:49.566Z,19.43
2017-11-26T09:14:16.327Z,18.40
2017-11-26T09:16:42.324Z,18.70
2017-11-26T09:19:09.076Z,18.40
2017-11-26T09:21:35.404Z,17.53
2017-11-26T09:24:02.136Z,17.20
2017-11-26T09:26:28.874Z,17.45
2017-11-26T09:28:55.043Z,16.52
2017-11-26T09:31:21.024Z,17.65
2017-11-26T09:33:47.765Z,17.67
2017-11-26T09:36:14.555Z,16.60
2017-11-26T09:38:40.514Z,16.10
2017-11-26T09:41:07.242Z,17.12
2017-11-26T09:43:33.263Z,17.33
2017-11-26T09:45:59.233Z,17.92
2017-11-26T09:48:25.244Z,17.40
2017-11-26T09:50:51.244Z,16.50
2017-11-26T09:53:17.988Z,16.08
2017-11-26T09:55:44.720Z,17.30
2017-11-26T09:58:11.453Z,15.88
2017-11-26T10:00:37.456Z,15.40
2017-11-26T10:03:03.450Z,15.10
2017-11-26T10:05:29.433Z,15.53
2017-11-26T10:07:56.159Z,15.15
2017-11-26T10:10:23.102Z,15.10
2017-11-26T10:12:49.099Z,13.40
2017-11-26T10:15:15.084Z,14.23
2017-11-26T10:17:41.168Z,14.60
2017-11-26T10:20:07.887Z,14.68
2017-11-26T10:22:33.892Z,14.05
2017-11-26T10:24:59.915Z,15.30
2017-11-26T10:27:25.950Z,14.57
2017-11-26T10:29:51.927Z,14.10
2017-11-26T10:32:18.019Z,13.62
2017-11-26T10:34:44.023Z,13.23
2017-11-26T10:37:10.011Z,13.23
2017-11-26T10:39:36.028Z,12.80
2017-11-26T10:42:01.999Z,12.10
2017-11-26T10:44:27.999Z,12.10
2017-11-26T10:46:54.018Z,11.67
2017-11-26T10:49:20.062Z,11.45
2017-11-26T10:51:46.106Z,12.25
2017-11-26T10:54:12.887Z,11.17
2017-11-26T10:56:38.883Z,11.35
2017-11-26T10:59:05.632Z,11.43
2017-11-26T11:01:31.641Z,11.20
2017-11-26T11:03:58.382Z,10.90
2017-11-26T11:06:25.104Z,11.32
2017-11-26T11:08:52.267Z,11.90
2017-11-26T11:11:19.052Z,12.10
2017-11-26T11:13:45.045Z,10.30
2017-11-26T11:16:11.351Z,10.88
2017-11-26T11:18:38.082Z,10.90
2017-11-26T11:21:04.142Z,10.60
2017-11-26T11:23:30.541Z,10.20
2017-11-26T11:25:57.294Z,10.40
2017-11-26T11:28:24.020Z,10.73
2017-11-26T11:30:50.785Z,10.23
2017-11-26T11:33:16.754Z,10.35
2017-11-26T11:35:42.732Z,11.27
2017-11-26T11:38:08.939Z,10.43
2017-11-26T11:40:35.681Z,10.52
2017-11-26T11:43:02.425Z,10.98
2017-11-26T11:45:29.179Z,10.50
2017-11-26T11:47:55.187Z,10.77
2017-11-26T11:50:21.206Z,9.95
2017-11-26T11:52:48.010Z,9.82
2017-11-26T11:55:14.032Z,9.93
2017-11-26T11:57:40.870Z,9.10
2017-11-26T12:00:06.850Z,9.50
2017-11-26T12:02:32.875Z,10.25
2017-11-26T12:04:59.178Z,9.20
2017-11-26T12:07:25.905Z,9.82
2017-11-26T12:09:51.935Z,9.35
2017-11-26T12:12:18.842Z,9.40
2017-11-26T12:14:44.830Z,8.95
2017-11-26T12:17:10.819Z,9.80
2017-11-26T12:19:37.587Z,9.30
2017-11-26T12:22:03.577Z,8.45
2017-11-26T12:24:30.315Z,8.55
2017-11-26T12:26:56.343Z,8.40
2017-11-26T12:29:23.109Z,8.90
2017-11-26T12:31:49.105Z,8.30
2017-11-26T12:34:16.051Z,8.40
2017-11-26T12:36:42.786Z,8.63
2017-11-26T12:39:09.518Z,8.63
2017-11-26T12:41:35.535Z,8.02
2017-11-26T12:44:01.519Z,8.00
2017-11-26T12:46:27.511Z,8.50
2017-11-26T12:48:53.606Z,8.00
2017-11-26T12:51:19.604Z,8.00
2017-11-26T12:53:45.608Z,7.90
2017-11-26T12:56:11.933Z,7.93
2017-11-26T12:58:38.666Z,8.20
2017-11-26T13:01:04.654Z,7.70
2017-11-26T13:03:32.654Z,7.53
2017-11-26T13:05:58.651Z,7.80
2017-11-26T13:08:25.405Z,7.40
2017-11-26T13:10:51.435Z,7.07
2017-11-26T13:13:17.445Z,19.05
2017-11-26T13:15:43.773Z,22.53
2017-11-26T13:18:09.767Z,16.70
2017-11-26T13:20:35.794Z,7.90
2017-11-26T13:23:01.790Z,7.25
2017-11-26T13:25:27.782Z,6.37
2017-11-26T13:27:53.790Z,5.87
2017-11-26T13:30:19.843Z,5.90
2017-11-26T13:32:45.840Z,5.80
2017-11-26T13:35:11.826Z,6.10
2017-11-26T13:37:37.823Z,6.30
2017-11-26T13:40:03.832Z,6.50
2017-11-26T13:42:29.828Z,4.90
2017-11-26T13:44:55.845Z,4.80
2017-11-26T13:47:21.868Z,4.65
2017-11-26T13:49:47.873Z,4.20
2017-11-26T13:52:14.801Z,4.10
2017-11-26T13:54:40.816Z,3.75
2017-11-26T13:57:06.794Z,3.80
2017-11-26T13:59:32.826Z,3.17
2017-11-26T14:01:58.816Z,3.05
2017-11-26T14:04:25.141Z,3.23
2017-11-26T14:06:51.112Z,2.53
2017-11-26T14:09:17.847Z,2.90
2017-11-26T14:11:43.846Z,3.35
2017-11-26T14:14:09.833Z,2.70
2017-11-26T14:16:36.587Z,3.20
2017-11-26T14:19:03.394Z,3.28
2017-11-26T14:21:29.408Z,3.33
2017-11-26T14:23:55.409Z,2.90
2017-11-26T14:26:21.425Z,2.95
2017-11-26T14:28:47.435Z,3.10
2017-11-26T14:31:13.474Z,3.10
2017-11-26T14:33:39.528Z,2.70
2017-11-26T14:36:11.215Z,3.12
2017-11-26T14:38:37.930Z,3.08
2017-11-26T14:41:03.967Z,3.00
2017-11-26T14:43:30.703Z,2.80
2017-11-26T14:45:57.475Z,3.20
2017-11-26T14:48:23.506Z,3.17
2017-11-26T14:50:49.503Z,2.70
2017-11-26T14:53:16.256Z,3.15
2017-11-26T14:55:42.503Z,2.85
2017-11-26T14:58:09.217Z,3.00
2017-11-26T15:00:35.204Z,3.17
2017-11-26T15:03:01.217Z,3.08
2017-11-26T15:05:27.197Z,3.00
2017-11-26T15:07:53.175Z,3.45
2017-11-26T15:10:19.172Z,2.80
2017-11-26T15:12:45.279Z,2.80
2017-11-26T15:15:11.309Z,3.10
2017-11-26T15:17:37.298Z,2.80
2017-11-26T15:20:03.303Z,3.70
2017-11-26T15:22:30.106Z,3.50
2017-11-26T15:24:56.107Z,2.65
2017-11-26T15:27:22.088Z,2.60
2017-11-26T15:29:48.833Z,2.40
2017-11-26T15:32:15.579Z,2.65
2017-11-26T15:34:41.565Z,2.80
2017-11-26T15:37:07.609Z,2.60
2017-11-26T15:39:34.383Z,2.77
2017-11-26T15:42:00.397Z,3.12
2017-11-26T15:44:26.413Z,2.77
2017-11-26T15:46:52.418Z,2.50
2017-11-26T15:49:19.134Z,2.80
2017-11-26T15:51:46.193Z,2.40
2017-11-26T15:54:12.914Z,2.42
2017-11-26T15:56:38.915Z,2.80
2017-11-26T15:59:04.916Z,2.50
2017-11-26T16:01:30.911Z,2.60
2017-11-26T16:03:57.644Z,2.30
2017-11-26T16:06:24.609Z,7.65
2017-11-26T16:08:50.614Z,17.80
2017-11-26T16:11:17.408Z,19.73
2017-11-26T16:13:43.458Z,19.83
2017-11-26T16:16:09.462Z,3.00
2017-11-26T16:18:35.470Z,2.80
2017-11-26T16:21:01.506Z,5.20
2017-11-26T16:23:27.506Z,3.20
2017-11-26T16:25:53.893Z,3.10
2017-11-26T16:28:20.647Z,2.70
2017-11-26T16:30:46.670Z,2.60
2017-11-26T16:33:12.926Z,2.78
2017-11-26T16:35:38.954Z,2.45
2017-11-26T16:38:04.960Z,2.80
2017-11-26T16:40:31.678Z,2.67
2017-11-26T16:42:57.732Z,2.95
2017-11-26T16:45:23.745Z,2.60
2017-11-26T16:47:49.774Z,2.65
2017-11-26T16:50:15.760Z,2.90
2017-11-26T16:52:42.486Z,2.70
2017-11-26T16:55:08.499Z,2.80
2017-11-26T16:57:34.513Z,3.15
2017-11-26T17:00:00.586Z,2.70
2017-11-26T17:02:26.687Z,3.30
2017-11-26T17:04:53.437Z,2.70
2017-11-26T17:07:19.486Z,2.50
2017-11-26T17:09:45.520Z,2.60
2017-11-26T17:12:11.543Z,2.62
2017-11-26T17:14:37.594Z,2.40
2017-11-26T17:17:03.606Z,2.70
2017-11-26T17:19:29.658Z,2.85
2017-11-26T17:21:56.392Z,2.70
2017-11-26T17:24:22.427Z,2.67
2017-11-26T17:26:49.164Z,2.53
2017-11-26T17:29:15.931Z,2.67
2017-11-26T17:31:41.974Z,2.80
2017-11-26T17:34:07.974Z,2.60
2017-11-26T17:36:34.017Z,2.90
2017-11-26T17:39:00.407Z,2.60
2017-11-26T17:41:27.495Z,2.62
2017-11-26T17:43:53.524Z,2.60
2017-11-26T17:46:19.549Z,2.50
2017-11-26T17:48:45.544Z,2.80
2017-11-26T17:51:11.632Z,2.62
2017-11-26T17:53:37.672Z,2.55
2017-11-26T17:56:04.382Z,2.60
2017-11-26T17:58:30.466Z,3.10
2017-11-26T18:00:56.654Z,3.30
2017-11-26T18:03:22.714Z,2.87
2017-11-26T18:05:48.753Z,2.90
2017-11-26T18:08:14.839Z,3.00
2017-11-26T18:10:40.835Z,2.90
2017-11-26T18:13:06.894Z,2.65
2017-11-26T18:15:32.964Z,2.60
2017-11-26T18:17:58.966Z,2.40
2017-11-26T18:20:25.009Z,2.70
2017-11-26T18:22:51.389Z,2.60
2017-11-26T18:25:17.380Z,3.30
2017-11-26T18:27:43.400Z,4.40
2017-11-26T18:30:10.710Z,2.70
2017-11-26T18:32:36.715Z,2.80
2017-11-26T18:35:02.715Z,2.70
2017-11-26T18:37:29.482Z,3.00
2017-11-26T18:39:55.524Z,3.00
2017-11-26T18:42:21.544Z,2.90
2017-11-26T18:44:47.838Z,2.50
2017-11-26T18:47:13.934Z,2.90
2017-11-26T18:49:40.019Z,2.90
2017-11-26T18:52:06.110Z,2.85
2017-11-26T18:54:32.681Z,3.50
2017-11-26T18:56:58.684Z,3.10
2017-11-26T18:59:24.730Z,2.72
2017-11-26T19:01:51.051Z,3.10
2017-11-26T19:04:17.054Z,3.50
2017-11-26T19:06:43.078Z,3.20
2017-11-26T19:09:09.080Z,3.12
2017-11-26T19:11:35.836Z,3.30
2017-11-26T19:14:02.168Z,2.90
2017-11-26T19:16:28.213Z,2.80
2017-11-26T19:18:54.232Z,3.28
2017-11-26T19:21:20.517Z,4.45
2017-11-26T19:23:47.309Z,2.90
2017-11-26T19:26:13.349Z,3.35
2017-11-26T19:28:39.397Z,4.60
2017-11-26T19:31:05.506Z,2.80
2017-11-26T19:33:31.703Z,2.70
2017-11-26T19:35:57.723Z,5.07
2017-11-26T19:38:23.771Z,3.20
2017-11-26T19:40:49.791Z,3.30
2017-11-26T19:43:16.199Z,3.60
2017-11-26T19:45:42.248Z,3.35
2017-11-26T19:48:08.309Z,2.83
2017-11-26T19:50:35.070Z,2.80
2017-11-26T19:53:01.110Z,2.85
2017-11-26T19:55:27.210Z,2.60
2017-11-26T19:57:53.296Z,2.62
2017-11-26T20:00:19.358Z,2.60
2017-11-26T20:02:45.384Z,3.47
2017-11-26T20:05:11.432Z,3.37
2017-11-26T20:07:37.506Z,3.10
2017-11-26T20:10:04.284Z,2.83
2017-11-26T20:12:30.311Z,2.90
2017-11-26T20:14:56.330Z,2.65
2017-11-26T20:17:22.355Z,2.50
2017-11-26T20:19:48.372Z,2.40
2017-11-26T20:22:14.380Z,2.75
2017-11-26T20:24:40.385Z,2.90
2017-11-26T20:27:07.350Z,3.97
2017-11-26T20:29:33.344Z,3.03
2017-11-26T20:32:00.105Z,2.67
2017-11-26T20:34:26.179Z,2.97
2017-11-26T20:36:52.174Z,3.10
2017-11-26T20:39:18.195Z,3.12
2017-11-26T20:41:44.240Z,2.87
2017-11-26T20:44:10.285Z,2.85
2017-11-26T20:46:36.288Z,3.00
2017-11-26T20:49:02.582Z,3.60
2017-11-26T20:51:28.579Z,2.97
2017-11-26T20:53:55.310Z,2.90
2017-11-26T20:56:22.483Z,2.90
2017-11-26T20:58:48.493Z,3.20
2017-11-26T21:01:14.482Z,2.83
2017-11-26T21:03:40.475Z,2.90
2017-11-26T21:06:06.498Z,2.87
2017-11-26T21:08:32.514Z,3.10
2017-11-26T21:10:58.623Z,3.50
2017-11-26T21:13:24.635Z,2.65
2017-11-26T21:15:50.680Z,3.72
2017-11-26T21:18:16.855Z,3.00
2017-11-26T21:20:42.854Z,2.80
2017-11-26T21:23:08.846Z,3.20
2017-11-26T21:25:34.935Z,3.03
2017-11-26T21:28:01.666Z,2.60
2017-11-26T21:30:30.743Z,2.57
2017-11-26T21:32:56.772Z,2.80
2017-11-26T21:35:22.777Z,2.70
2017-11-26T21:37:49.121Z,2.50
2017-11-26T21:40:15.133Z,2.87
2017-11-26T21:42:41.132Z,2.60
2017-11-26T21:45:07.149Z,3.10
2017-11-26T21:47:33.172Z,2.73
2017-11-26T21:49:59.195Z,2.62
2017-11-26T21:52:25.196Z,2.70
2017-11-26T21:54:51.338Z,2.70
2017-11-26T21:57:17.393Z,2.30
2017-11-26T21:59:43.413Z,2.70
2017-11-26T22:02:09.637Z,2.70
2017-11-26T22:04:35.625Z,2.62
2017-11-26T22:07:01.593Z,2.60
2017-11-26T22:09:27.569Z,2.90
2017-11-26T22:11:53.584Z,2.92
2017-11-26T22:14:19.545Z,3.25
2017-11-26T22:16:45.715Z,3.00
2017-11-26T22:19:12.442Z,2.50
2017-11-26T22:21:39.171Z,2.90
2017-11-26T22:24:05.220Z,3.33
2017-11-26T22:26:31.201Z,3.20
2017-11-26T22:28:57.178Z,2.78
2017-11-26T22:31:23.229Z,3.03
2017-11-26T22:33:49.191Z,3.10
2017-11-26T22:36:15.927Z,2.80
2017-11-26T22:38:42.745Z,2.80
2017-11-26T22:41:08.775Z,3.28
2017-11-26T22:43:34.759Z,3.40
2017-11-26T22:46:00.747Z,3.58
2017-11-26T22:48:27.678Z,3.35
2017-11-26T22:50:53.650Z,3.17
2017-11-26T22:53:19.617Z,3.08
2017-11-26T22:55:45.977Z,3.00
2017-11-26T22:58:11.963Z,2.87
2017-11-26T23:00:37.940Z,3.85
2017-11-26T23:03:03.934Z,2.70
2017-11-26T23:05:30.677Z,2.62
2017-11-26T23:07:57.402Z,2.90
2017-11-26T23:10:24.153Z,3.00
2017-11-26T23:12:50.866Z,2.83
2017-11-26T23:15:16.878Z,2.67
2017-11-26T23:17:42.833Z,2.73
2017-11-26T23:20:09.639Z,2.70
2017-11-26T23:22:35.652Z,2.90
2017-11-26T23:25:08.722Z,2.95
2017-11-26T23:27:34.729Z,2.80
2017-11-26T23:30:00.715Z,3.03
2017-11-26T23:32:27.442Z,3.20
2017-11-26T23:34:53.474Z,2.73
2017-11-26T23:37:20.215Z,2.70
2017-11-26T23:39:46.976Z,2.80
2017-11-26T23:42:12.978Z,3.25
2017-11-26T23:44:39.705Z,3.50
2017-11-26T23:47:05.689Z,3.30
2017-11-26T23:49:31.704Z,3.60
2017-11-26T23:51:57.669Z,3.92
2017-11-26T23:54:23.629Z,4.03
2017-11-26T23:56:49.609Z,3.70
2017-11-26T23:59:15.603Z,4.03
